Time;durP1;ratioP1;P1;durP2;ratioP2;P2;SDS_P1;SDS_P2;PMS_P1;PMS_P2;Temp;Humidity;BMP_temperature;BMP_pressure;BME280_temperature;BME280_humidity;BME280_pressure;Samples;Min_cycle;Max_cycle;Signal;HPM_P1;HPM_P2
2021/11/23 00:01:31;;;;;;;14.80;8.70;;;;;;;2.48;76.88;100859.27;126867;1316;108811;-77
2021/11/23 00:04:36;;;;;;;17.30;9.10;;;;;;;2.47;76.95;100863.55;126894;1310;108865;-77
2021/11/23 00:07:42;;;;;;;16.90;9.10;;;;;;;2.43;76.87;100864.66;126881;1310;108981;-78
2021/11/23 00:10:48;;;;;;;16.60;8.50;;;;;;;2.40;76.97;100869.23;126955;1310;108606;-78
2021/11/23 00:13:53;;;;;;;16.60;9.80;;;;;;;2.32;77.16;100865.05;126982;1310;108768;-77
2021/11/23 00:16:59;;;;;;;17.50;9.00;;;;;;;2.31;77.26;100862.32;126884;1310;107593;-79
2021/11/23 00:20:06;;;;;;;15.30;9.30;;;;;;;2.39;77.42;100864.17;126859;1316;108633;-79
2021/11/23 00:23:12;;;;;;;18.20;8.70;;;;;;;2.50;77.44;100868.46;126594;1309;108763;-79
2021/11/23 00:26:18;;;;;;;18.30;10.20;;;;;;;2.57;77.57;100872.80;126713;1313;108779;-80
2021/11/23 00:29:23;;;;;;;18.80;10.20;;;;;;;2.64;77.55;100871.52;126873;1317;107707;-77
2021/11/23 00:32:29;;;;;;;18.90;10.70;;;;;;;2.73;77.54;100868.21;126905;1310;108837;-77
2021/11/23 00:35:37;;;;;;;16.60;10.50;;;;;;;2.85;77.44;100862.58;126692;1310;108632;-74
2021/11/23 00:38:45;;;;;;;18.50;10.90;;;;;;;2.93;77.33;100865.31;126819;1310;108949;-77
2021/11/23 00:41:51;;;;;;;19.60;11.40;;;;;;;2.94;77.43;100867.20;126961;1310;108663;-77
2021/11/23 00:44:56;;;;;;;22.00;11.70;;;;;;;2.96;77.49;100873.23;126893;1310;108837;-76
2021/11/23 00:48:03;;;;;;;20.90;11.60;;;;;;;2.97;77.49;100867.02;126880;1313;108872;-79
2021/11/23 00:51:08;;;;;;;16.30;9.90;;;;;;;3.02;77.61;100867.75;126902;1310;108732;-79
2021/11/23 00:54:14;;;;;;;18.20;11.20;;;;;;;3.11;77.71;100866.54;126946;1310;108789;-80
2021/11/23 00:57:20;;;;;;;18.30;11.50;;;;;;;3.21;77.62;100867.56;126942;1310;108735;-80
2021/11/23 01:00:26;;;;;;;18.00;11.60;;;;;;;3.28;77.68;100866.79;126840;1310;108839;-79
2021/11/23 01:03:32;;;;;;;20.00;12.00;;;;;;;3.33;77.54;100861.38;126756;1313;108954;-79
2021/11/23 01:06:38;;;;;;;20.70;12.40;;;;;;;3.36;77.59;100858.38;126925;1314;108747;-79
2021/11/23 01:09:43;;;;;;;19.90;12.30;;;;;;;3.39;77.52;100861.02;126878;1313;108874;-78
2021/11/23 01:12:49;;;;;;;21.30;12.90;;;;;;;3.39;77.65;100863.15;126858;1310;108929;-76
2021/11/23 01:15:54;;;;;;;19.40;11.50;;;;;;;3.42;77.79;100860.50;126887;1310;107021;-75
2021/11/23 01:19:00;;;;;;;18.10;11.80;;;;;;;3.49;77.62;100859.17;126842;1310;107501;-73
2021/11/23 01:22:05;;;;;;;22.70;13.00;;;;;;;3.58;77.64;100857.08;126883;1316;108598;-76
2021/11/23 01:25:12;;;;;;;22.90;12.90;;;;;;;3.60;77.60;100861.71;126705;1310;108925;-75
2021/11/23 01:28:17;;;;;;;20.00;12.20;;;;;;;3.56;77.62;100863.52;126674;1313;108930;-75
2021/11/23 01:31:23;;;;;;;20.20;12.50;;;;;;;3.47;77.69;100864.08;126886;1310;108787;-76
2021/11/23 01:34:28;;;;;;;17.30;10.60;;;;;;;3.44;77.72;100857.23;126926;1310;108928;-76
2021/11/23 01:37:34;;;;;;;16.10;10.20;;;;;;;3.43;77.55;100858.87;126843;1310;108824;-75
2021/11/23 01:40:39;;;;;;;13.10;8.70;;;;;;;3.39;77.49;100859.12;126864;1310;109000;-76
2021/11/23 01:43:45;;;;;;;14.00;9.30;;;;;;;3.41;77.70;100863.20;126891;1313;108699;-76
2021/11/23 01:46:50;;;;;;;13.50;9.10;;;;;;;3.50;77.60;100858.98;126876;1310;109187;-75
2021/11/23 01:49:56;;;;;;;12.70;8.60;;;;;;;3.55;77.39;100855.34;126869;1310;107404;-76
2021/11/23 01:53:04;;;;;;;11.40;8.00;;;;;;;3.57;77.31;100851.32;126622;1310;107669;-75
2021/11/23 01:56:09;;;;;;;11.30;7.70;;;;;;;3.60;77.26;100850.83;126923;1310;107654;-76
2021/11/23 01:59:15;;;;;;;13.40;7.90;;;;;;;3.58;77.23;100855.35;126861;1310;107660;-76
2021/11/23 02:02:24;;;;;;;13.30;8.40;;;;;;;3.53;77.22;100860.90;126900;1310;108824;-76
2021/11/23 02:05:30;;;;;;;11.80;7.00;;;;;;;3.52;77.14;100866.57;126917;1310;108797;-77
2021/11/23 02:08:36;;;;;;;13.00;7.80;;;;;;;3.46;77.04;100876.23;126858;1310;108610;-76
2021/11/23 02:11:41;;;;;;;13.40;8.50;;;;;;;3.37;77.22;100877.34;126843;1310;108853;-75
2021/11/23 02:14:47;;;;;;;13.80;8.90;;;;;;;3.31;77.45;100875.93;126916;1310;108770;-76
2021/11/23 02:17:54;;;;;;;13.50;9.00;;;;;;;3.27;77.56;100876.55;126768;1310;108768;-76
2021/11/23 02:21:00;;;;;;;14.30;9.10;;;;;;;3.24;77.77;100881.44;126845;1310;108939;-76
2021/11/23 02:24:06;;;;;;;14.50;9.70;;;;;;;3.20;77.87;100886.60;126764;1310;108685;-78
2021/11/23 02:27:12;;;;;;;14.20;8.60;;;;;;;3.17;77.80;100891.00;126843;1310;109066;-78
2021/11/23 02:30:18;;;;;;;12.40;7.40;;;;;;;3.20;77.80;100883.30;126909;1313;108805;-78
2021/11/23 02:33:25;;;;;;;11.90;8.60;;;;;;;3.27;77.87;100881.11;126853;1310;107848;-76
2021/11/23 02:36:31;;;;;;;13.90;8.40;;;;;;;3.33;77.77;100879.30;126934;1310;108983;-79
2021/11/23 02:39:37;;;;;;;13.20;8.70;;;;;;;3.33;77.62;100884.10;126870;1310;108837;-77
2021/11/23 02:42:43;;;;;;;13.50;8.90;;;;;;;3.31;77.56;100884.01;126883;1310;107893;-80
2021/11/23 02:45:50;;;;;;;12.20;8.80;;;;;;;3.31;77.56;100883.50;126738;1310;108821;-78
2021/11/23 02:48:56;;;;;;;11.10;8.10;;;;;;;3.24;77.52;100891.48;126861;1310;108559;-77
2021/11/23 02:52:02;;;;;;;12.20;7.90;;;;;;;3.15;77.65;100881.61;126867;1310;108919;-77
2021/11/23 02:55:08;;;;;;;10.80;7.60;;;;;;;3.08;77.87;100878.50;126892;1310;109119;-79
2021/11/23 02:58:13;;;;;;;11.10;7.70;;;;;;;3.06;77.77;100880.21;126906;1310;108705;-77
2021/11/23 03:01:20;;;;;;;11.10;7.80;;;;;;;3.07;77.80;100869.27;126894;1310;107638;-75
2021/11/23 03:04:25;;;;;;;12.20;8.30;;;;;;;3.04;77.61;100870.30;126910;1310;108989;-77
2021/11/23 03:07:31;;;;;;;11.90;8.40;;;;;;;2.92;77.64;100870.80;126835;1310;108907;-77
2021/11/23 03:10:36;;;;;;;11.40;7.60;;;;;;;2.77;77.73;100875.35;126938;1310;108811;-78
2021/11/23 03:13:42;;;;;;;10.50;7.30;;;;;;;2.69;77.88;100878.63;126897;1310;108545;-78
2021/11/23 03:16:47;;;;;;;11.10;7.40;;;;;;;2.70;77.80;100871.20;126788;1310;109047;-76
2021/11/23 03:19:54;;;;;;;12.30;7.80;;;;;;;2.70;77.62;100868.23;126679;1309;107584;-78
2021/11/23 03:23:00;;;;;;;11.40;7.80;;;;;;;2.70;77.57;100856.63;126369;1310;108932;-77
2021/11/23 03:26:05;;;;;;;11.30;8.20;;;;;;;2.64;77.42;100845.58;126806;1312;107736;-76
2021/11/23 03:29:11;;;;;;;13.70;8.30;;;;;;;2.52;77.45;100848.70;126723;1310;107815;-75
2021/11/23 03:32:16;;;;;;;11.60;8.50;;;;;;;2.43;77.57;100846.92;126721;1310;108829;-78
2021/11/23 03:35:22;;;;;;;13.30;8.50;;;;;;;2.40;77.63;100848.85;126472;1310;109040;-76
2021/11/23 03:38:28;;;;;;;10.20;6.20;;;;;;;2.36;77.69;100853.81;126846;1310;108750;-74
2021/11/23 03:41:34;;;;;;;10.40;7.10;;;;;;;2.37;77.56;100861.83;126870;1310;108675;-78
2021/11/23 03:44:40;;;;;;;11.90;8.00;;;;;;;2.41;77.52;100859.14;127109;1310;108958;-80
2021/11/23 03:47:46;;;;;;;11.30;7.50;;;;;;;2.47;77.57;100850.35;126922;1310;108451;-76
2021/11/23 03:50:52;;;;;;;12.10;7.90;;;;;;;2.54;77.43;100843.63;126881;1310;108938;-76
2021/11/23 03:53:57;;;;;;;10.00;7.40;;;;;;;2.59;77.22;100840.73;126905;1310;108876;-77
2021/11/23 03:57:03;;;;;;;12.20;7.30;;;;;;;2.62;77.25;100839.67;126872;1310;107926;-79
2021/11/23 04:00:12;;;;;;;11.90;7.60;;;;;;;2.64;77.29;100833.06;126909;1310;108912;-77
2021/11/23 04:03:17;;;;;;;10.40;7.10;;;;;;;2.68;77.20;100827.39;126834;1310;109016;-76
2021/11/23 04:06:22;;;;;;;8.10;5.50;;;;;;;2.74;77.15;100817.05;126932;1310;108853;-77
2021/11/23 04:09:28;;;;;;;8.80;5.90;;;;;;;2.80;77.05;100813.05;126919;1310;108838;-77
2021/11/23 04:12:33;;;;;;;8.80;5.90;;;;;;;2.84;77.02;100810.12;126874;1310;107993;-77
2021/11/23 04:15:39;;;;;;;8.70;6.20;;;;;;;2.88;76.96;100806.90;126858;1313;108692;-76
2021/11/23 04:18:44;;;;;;;9.70;6.00;;;;;;;2.92;76.83;100810.58;126889;1310;107732;-77
2021/11/23 04:21:51;;;;;;;9.30;5.80;;;;;;;2.91;76.78;100817.09;126893;1310;108675;-78
2021/11/23 04:24:57;;;;;;;8.60;5.60;;;;;;;2.89;76.65;100818.14;126886;1310;107152;-80
2021/11/23 04:28:02;;;;;;;8.20;5.80;;;;;;;2.88;76.71;100821.89;126481;1310;109985;-82
2021/11/23 04:31:08;;;;;;;7.40;5.10;;;;;;;2.85;76.74;100816.08;126973;1310;107080;-80
2021/11/23 04:34:13;;;;;;;8.60;5.00;;;;;;;2.81;76.57;100813.82;127097;1310;108611;-80
2021/11/23 04:37:18;;;;;;;6.90;4.30;;;;;;;2.83;76.61;100818.30;126861;1310;108753;-77
2021/11/23 04:40:24;;;;;;;5.90;4.30;;;;;;;2.86;76.46;100810.89;126916;1310;108771;-78
2021/11/23 04:43:29;;;;;;;7.70;4.40;;;;;;;2.88;76.56;100811.68;126871;1313;108683;-82
2021/11/23 04:46:35;;;;;;;7.80;4.30;;;;;;;2.92;76.35;100811.41;126753;1310;106864;-80
2021/11/23 04:49:41;;;;;;;7.10;4.20;;;;;;;2.95;76.22;100812.11;126945;1310;108672;-80
2021/11/23 04:52:46;;;;;;;7.30;4.30;;;;;;;2.92;76.12;100815.45;126759;1310;108757;-82
2021/11/23 04:55:52;;;;;;;6.60;4.10;;;;;;;2.91;76.16;100809.73;126656;1310;108868;-83
2021/11/23 04:58:57;;;;;;;8.10;4.50;;;;;;;2.90;75.98;100802.09;126980;1313;108699;-79
2021/11/23 05:02:03;;;;;;;8.20;4.70;;;;;;;2.87;76.08;100800.84;126968;1310;108746;-78
2021/11/23 05:05:10;;;;;;;9.40;3.90;;;;;;;2.86;76.05;100794.23;126884;1314;109028;-77
2021/11/23 05:08:16;;;;;;;7.90;4.30;;;;;;;2.84;75.82;100793.07;126805;1310;108786;-76
2021/11/23 05:11:26;;;;;;;48.00;18.10;;;;;;;2.84;75.74;100786.77;126665;1310;108840;-77
2021/11/23 05:14:31;;;;;;;75.10;31.40;;;;;;;2.87;75.62;100782.74;126859;1313;108818;-76
2021/11/23 05:17:37;;;;;;;134.50;50.10;;;;;;;2.89;75.67;100775.73;126864;1310;108779;-77
2021/11/23 05:20:42;;;;;;;49.70;20.20;;;;;;;2.95;75.58;100773.13;126856;1310;109003;-75
2021/11/23 05:23:48;;;;;;;81.90;33.40;;;;;;;2.94;75.23;100771.41;126875;1310;108818;-76
2021/11/23 05:26:53;;;;;;;128.90;57.90;;;;;;;2.93;75.47;100769.53;126754;1317;109012;-80
2021/11/23 05:30:00;;;;;;;31.40;15.00;;;;;;;2.94;75.36;100764.56;126469;1310;109250;-83
2021/11/23 05:33:05;;;;;;;63.50;31.90;;;;;;;2.93;75.29;100761.44;126941;1310;109341;-75
2021/11/23 05:36:11;;;;;;;28.90;14.60;;;;;;;2.92;75.25;100764.11;126611;1313;109099;-76
2021/11/23 05:39:17;;;;;;;18.20;12.20;;;;;;;2.91;75.00;100762.41;126880;1310;108747;-76
2021/11/23 05:42:22;;;;;;;13.80;9.70;;;;;;;2.88;75.10;100762.10;126876;1310;108474;-76
2021/11/23 05:45:28;;;;;;;11.30;7.80;;;;;;;2.89;74.94;100760.11;126852;1310;108825;-78
2021/11/23 05:48:33;;;;;;;16.70;11.30;;;;;;;2.93;74.88;100757.79;126877;1310;107849;-79
2021/11/23 05:51:40;;;;;;;9.10;6.20;;;;;;;3.00;74.83;100754.17;126871;1310;108710;-77
2021/11/23 05:54:46;;;;;;;9.20;6.40;;;;;;;3.09;74.81;100755.90;126867;1310;106833;-77
2021/11/23 05:57:51;;;;;;;14.70;10.70;;;;;;;3.15;74.55;100755.36;126721;1313;109397;-75
2021/11/23 06:00:57;;;;;;;15.90;9.90;;;;;;;3.20;74.38;100754.73;126792;1307;172161;-76
2021/11/23 06:04:02;;;;;;;160.20;64.10;;;;;;;3.22;74.21;100752.17;126922;1310;108936;-79
2021/11/23 06:07:08;;;;;;;138.90;51.70;;;;;;;3.21;74.05;100751.88;126561;1310;107772;-80
2021/11/23 06:10:13;;;;;;;209.20;77.10;;;;;;;3.19;74.14;100755.36;127024;1310;108433;-81
2021/11/23 06:13:19;;;;;;;160.40;60.50;;;;;;;3.16;74.35;100751.27;126978;1310;108627;-77
2021/11/23 06:16:24;;;;;;;201.60;74.40;;;;;;;3.17;74.32;100748.44;126900;1310;108763;-80
2021/11/23 06:19:30;;;;;;;61.80;26.50;;;;;;;3.17;74.45;100742.27;126922;1310;107891;-78
2021/11/23 06:22:37;;;;;;;14.70;8.30;;;;;;;3.18;74.51;100744.35;126957;1310;108588;-76
2021/11/23 06:25:43;;;;;;;9.00;5.00;;;;;;;3.18;74.36;100737.81;126974;1310;108769;-79
2021/11/23 06:28:49;;;;;;;12.60;8.20;;;;;;;3.22;74.29;100739.87;126947;1313;108821;-77
2021/11/23 06:31:55;;;;;;;7.60;4.30;;;;;;;3.29;74.33;100741.17;127188;1310;108780;-77
2021/11/23 06:35:00;;;;;;;11.00;7.30;;;;;;;3.36;74.25;100744.43;126899;1310;108789;-76
2021/11/23 06:38:07;;;;;;;8.10;4.40;;;;;;;3.41;74.12;100739.59;126887;1310;108720;-77
2021/11/23 06:41:12;;;;;;;9.60;4.80;;;;;;;3.44;74.15;100736.59;126908;1310;108754;-77
2021/11/23 06:44:18;;;;;;;9.50;4.60;;;;;;;3.47;74.16;100731.47;126877;1310;108778;-78
2021/11/23 06:47:23;;;;;;;7.10;4.00;;;;;;;3.49;73.96;100729.05;126850;1309;108922;-77
2021/11/23 06:50:32;;;;;;;6.70;4.00;;;;;;;3.49;73.86;100728.14;126867;1310;106653;-77
2021/11/23 06:53:37;;;;;;;7.10;4.20;;;;;;;3.49;73.87;100730.10;126892;1310;108607;-77
2021/11/23 06:56:43;;;;;;;8.80;5.10;;;;;;;3.51;73.65;100725.40;126716;1310;108821;-78
2021/11/23 06:59:48;;;;;;;9.30;4.80;;;;;;;3.52;73.71;100723.54;126623;1310;107349;-79
2021/11/23 07:02:54;;;;;;;9.00;5.10;;;;;;;3.55;73.70;100722.35;126793;1310;107773;-77
2021/11/23 07:05:59;;;;;;;8.20;5.00;;;;;;;3.57;73.74;100716.96;126843;1310;108780;-76
2021/11/23 07:09:06;;;;;;;7.70;4.00;;;;;;;3.62;73.94;100709.08;126815;1310;108820;-78
2021/11/23 07:12:13;;;;;;;8.60;4.70;;;;;;;3.72;73.70;100707.53;126471;1310;108584;-77
2021/11/23 07:15:18;;;;;;;9.10;4.50;;;;;;;3.82;73.28;100710.95;126896;1310;108783;-78
2021/11/23 07:18:23;;;;;;;9.10;5.00;;;;;;;3.88;73.16;100715.30;126858;1313;109112;-76
2021/11/23 07:21:29;;;;;;;37.90;23.60;;;;;;;3.91;73.04;100713.71;126887;1310;106653;-76
2021/11/23 07:24:34;;;;;;;248.70;109.20;;;;;;;3.92;72.95;100710.80;126862;1310;107325;-76
2021/11/23 07:27:42;;;;;;;53.80;27.50;;;;;;;3.92;72.85;100710.48;126644;1310;108951;-78
2021/11/23 07:30:48;;;;;;;21.90;12.20;;;;;;;3.91;72.70;100717.38;126820;1310;108762;-78
2021/11/23 07:33:53;;;;;;;11.00;6.30;;;;;;;3.88;72.88;100716.55;126890;1310;108776;-79
2021/11/23 07:36:59;;;;;;;9.20;5.10;;;;;;;3.88;72.54;100716.35;126858;1310;108859;-78
2021/11/23 07:40:06;;;;;;;9.20;4.30;;;;;;;3.85;72.89;100705.96;126852;1310;108821;-78
2021/11/23 07:43:12;;;;;;;10.00;4.90;;;;;;;3.88;72.69;100698.91;126826;1310;108872;-78
2021/11/23 07:46:17;;;;;;;13.30;6.60;;;;;;;3.88;72.76;100706.49;126478;1310;108820;-78
2021/11/23 07:49:23;;;;;;;8.70;3.70;;;;;;;3.89;72.58;100710.71;126421;1310;107734;-77
2021/11/23 07:52:28;;;;;;;5.90;3.40;;;;;;;3.91;72.87;100713.17;126769;1310;108951;-78
2021/11/23 07:55:35;;;;;;;7.60;3.50;;;;;;;3.94;72.69;100710.34;126646;1310;108735;-79
2021/11/23 07:58:40;;;;;;;7.30;4.30;;;;;;;4.03;73.00;100715.61;126882;1310;108603;-79
2021/11/23 08:01:46;;;;;;;7.00;3.40;;;;;;;4.10;73.12;100707.41;126890;1310;108937;-80
2021/11/23 08:04:51;;;;;;;5.60;2.70;;;;;;;4.14;72.95;100713.10;126869;1310;108920;-79
2021/11/23 08:07:56;;;;;;;7.70;2.90;;;;;;;4.18;73.08;100709.52;126900;1310;109791;-78
2021/11/23 08:11:02;;;;;;;7.00;3.50;;;;;;;4.20;73.01;100713.91;126859;1313;106765;-81
2021/11/23 08:14:07;;;;;;;6.10;3.10;;;;;;;4.20;72.77;100713.98;126874;1310;108895;-77
2021/11/23 08:17:13;;;;;;;4.80;2.90;;;;;;;4.16;72.72;100714.43;126757;1310;106663;-78
2021/11/23 08:20:18;;;;;;;8.60;3.00;;;;;;;4.17;72.80;100712.24;126599;1313;109011;-78
2021/11/23 08:23:24;;;;;;;6.70;3.40;;;;;;;4.14;72.87;100706.26;126425;1310;109006;-79
2021/11/23 08:26:29;;;;;;;6.10;3.20;;;;;;;4.15;72.95;100704.41;126731;1310;107277;-79
2021/11/23 08:29:34;;;;;;;7.60;3.10;;;;;;;4.19;72.78;100704.35;126886;1310;107463;-78
2021/11/23 08:32:40;;;;;;;5.40;3.10;;;;;;;4.25;73.10;100705.84;126806;1310;108785;-79
2021/11/23 08:35:45;;;;;;;5.90;3.00;;;;;;;4.34;72.81;100704.41;126842;1310;108981;-79
2021/11/23 08:38:51;;;;;;;8.50;3.30;;;;;;;4.36;72.49;100709.40;126920;1310;108897;-80
2021/11/23 08:41:56;;;;;;;5.60;3.00;;;;;;;4.33;72.75;100704.27;126804;1310;108999;-81
2021/11/23 08:45:02;;;;;;;9.50;5.90;;;;;;;4.37;72.94;100705.83;126837;1310;108719;-79
2021/11/23 08:48:08;;;;;;;29.80;17.20;;;;;;;4.35;72.97;100718.08;126853;1310;108742;-81
2021/11/23 08:51:17;;;;;;;62.70;36.00;;;;;;;4.37;73.09;100721.32;126867;1310;108849;-79
2021/11/23 08:54:23;;;;;;;58.20;33.40;;;;;;;4.31;73.10;100723.80;126880;1310;108813;-80
2021/11/23 08:57:29;;;;;;;45.20;24.60;;;;;;;4.24;73.35;100725.34;126852;1313;108689;-78
2021/11/23 09:00:35;;;;;;;15.30;8.10;;;;;;;4.21;73.53;100728.85;126844;1310;107761;-78
2021/11/23 09:03:41;;;;;;;9.90;4.90;;;;;;;4.18;73.73;100722.54;126892;1313;109039;-81
2021/11/23 09:06:46;;;;;;;32.30;19.10;;;;;;;4.18;73.73;100720.64;126872;1310;108746;-80
2021/11/23 09:09:52;;;;;;;24.40;13.70;;;;;;;4.25;73.90;100725.10;126817;1310;108010;-81
2021/11/23 09:13:00;;;;;;;16.40;9.40;;;;;;;4.27;73.90;100719.29;126826;1310;108746;-82
2021/11/23 09:16:06;;;;;;;16.00;10.80;;;;;;;4.29;73.97;100717.75;126934;1310;108777;-78
2021/11/23 09:19:12;;;;;;;17.10;10.30;;;;;;;4.30;73.91;100713.45;126864;1310;108854;-79
2021/11/23 09:22:17;;;;;;;12.60;8.10;;;;;;;4.27;73.93;100713.11;126850;1310;108796;-79
2021/11/23 09:25:23;;;;;;;10.80;5.80;;;;;;;4.24;74.13;100711.55;126865;1310;108865;-80
2021/11/23 09:28:28;;;;;;;10.30;5.50;;;;;;;4.25;74.24;100710.13;126826;1313;109034;-79
2021/11/23 09:31:33;;;;;;;10.90;6.80;;;;;;;4.25;74.13;100716.29;126873;1310;108653;-79
2021/11/23 09:34:39;;;;;;;10.60;6.40;;;;;;;4.23;74.16;100716.02;126875;1310;108935;-78
2021/11/23 09:37:45;;;;;;;10.30;6.10;;;;;;;4.27;74.31;100718.45;126845;1310;109090;-78
2021/11/23 09:40:51;;;;;;;9.90;6.00;;;;;;;4.27;74.17;100720.03;126875;1310;108637;-78
2021/11/23 09:43:56;;;;;;;10.80;6.20;;;;;;;4.26;74.23;100723.45;126863;1310;108844;-78
2021/11/23 09:47:02;;;;;;;9.80;6.70;;;;;;;4.27;74.20;100718.77;126832;1310;109719;-79
2021/11/23 09:50:09;;;;;;;10.20;6.60;;;;;;;4.26;74.27;100721.11;126791;1310;108754;-78
2021/11/23 09:53:17;;;;;;;10.40;6.20;;;;;;;4.24;74.36;100718.95;126471;1313;108996;-78
2021/11/23 09:56:23;;;;;;;9.90;6.00;;;;;;;4.22;74.59;100716.30;126868;1310;106798;-78
2021/11/23 09:59:29;;;;;;;11.50;6.00;;;;;;;4.20;74.67;100716.63;126837;1310;108758;-79
2021/11/23 10:02:34;;;;;;;9.60;6.40;;;;;;;4.19;74.78;100711.77;126867;1310;108716;-79
2021/11/23 10:05:41;;;;;;;10.10;6.00;;;;;;;4.18;74.90;100708.60;126885;1313;108911;-78
2021/11/23 10:08:48;;;;;;;11.40;6.60;;;;;;;4.13;75.08;100708.79;126919;1310;108871;-78
2021/11/23 10:11:54;;;;;;;11.80;6.70;;;;;;;4.08;75.03;100706.81;126866;1310;108894;-78
2021/11/23 10:15:15;;;;;;;9.60;6.00;;;;;;;4.10;75.37;100710.93;126852;1310;108956;-79
2021/11/23 10:18:23;;;;;;;9.60;6.10;;;;;;;4.11;75.40;100714.54;126920;1310;108793;-80
2021/11/23 10:21:29;;;;;;;63.30;31.60;;;;;;;4.14;75.56;100714.16;126870;1310;108904;-80
2021/11/23 10:24:38;;;;;;;168.20;75.70;;;;;;;4.22;75.43;100710.15;126925;1310;107616;-79
2021/11/23 10:27:45;;;;;;;21.00;11.00;;;;;;;4.28;75.77;100713.59;126911;1313;108700;-78
2021/11/23 10:30:52;;;;;;;15.00;8.70;;;;;;;4.15;76.14;100713.95;126988;1310;108848;-81
2021/11/23 10:34:01;;;;;;;12.40;8.10;;;;;;;4.11;76.18;100715.44;126950;1313;108783;-80
2021/11/23 10:37:06;;;;;;;12.30;7.60;;;;;;;4.10;76.36;100719.38;126971;1310;108928;-78
2021/11/23 10:40:19;;;;;;;12.70;7.20;;;;;;;4.11;76.49;100719.80;126874;1310;107163;-78
2021/11/23 10:43:25;;;;;;;13.80;8.20;;;;;;;4.10;76.80;100728.30;126587;1310;108722;-79
2021/11/23 10:46:33;;;;;;;12.30;7.50;;;;;;;4.09;76.58;100725.23;126858;1310;109161;-78
2021/11/23 10:49:44;;;;;;;20.50;10.00;;;;;;;4.17;76.57;100722.41;126790;1310;107708;-78
2021/11/23 10:52:51;;;;;;;18.20;9.80;;;;;;;4.22;76.59;100721.02;126944;1310;108544;-79
2021/11/23 10:56:04;;;;;;;27.80;12.50;;;;;;;4.23;76.63;100727.98;126914;1310;107695;-79
2021/11/23 10:59:09;;;;;;;19.70;9.50;;;;;;;4.18;76.77;100724.84;126829;1310;108776;-78
2021/11/23 11:02:14;;;;;;;15.70;8.60;;;;;;;4.21;76.86;100727.46;126737;1310;108822;-79
2021/11/23 11:05:21;;;;;;;19.50;9.90;;;;;;;4.24;77.05;100729.17;126940;1310;107385;-79
2021/11/23 11:08:33;;;;;;;20.60;11.00;;;;;;;4.24;76.91;100721.09;126823;1310;108800;-79
2021/11/23 11:11:39;;;;;;;30.40;18.80;;;;;;;4.28;76.93;100723.12;126936;1310;109176;-79
2021/11/23 11:14:49;;;;;;;29.80;18.30;;;;;;;4.29;76.95;100718.07;126919;1310;108699;-78
2021/11/23 11:17:56;;;;;;;37.60;20.60;;;;;;;4.26;76.99;100715.98;126886;1310;108814;-79
2021/11/23 11:21:03;;;;;;;71.20;36.60;;;;;;;4.24;77.05;100720.88;127012;1310;109026;-80
2021/11/23 11:24:33;;;;;;;75.40;35.20;;;;;;;4.29;76.98;100726.39;126967;1310;107328;-80
2021/11/23 11:27:45;;;;;;;59.90;31.20;;;;;;;4.30;77.17;100721.41;126926;1310;108646;-80
2021/11/23 11:30:52;;;;;;;56.30;31.60;;;;;;;4.34;77.17;100715.50;126977;1310;107843;-78
2021/11/23 11:34:30;;;;;;;51.40;28.90;;;;;;;4.30;77.17;100721.92;126949;1310;106616;-79
2021/11/23 11:37:37;;;;;;;21.90;12.70;;;;;;;4.23;77.51;100723.07;126858;1310;109025;-80
2021/11/23 11:40:43;;;;;;;23.90;13.90;;;;;;;4.12;77.50;100724.84;126852;1310;108967;-78
2021/11/23 11:43:48;;;;;;;17.00;10.60;;;;;;;4.11;77.68;100733.69;126927;1310;108626;-80
2021/11/23 11:47:05;;;;;;;24.00;15.40;;;;;;;4.09;78.21;100738.58;126892;1310;108777;-78
2021/11/23 11:50:19;;;;;;;18.10;11.30;;;;;;;4.15;78.19;100736.83;126542;1310;108699;-79
2021/11/23 11:53:24;;;;;;;17.80;11.10;;;;;;;4.15;78.10;100740.55;126725;1310;108870;-78
2021/11/23 11:56:55;;;;;;;23.40;14.70;;;;;;;4.10;78.27;100731.88;126544;1310;108800;-80
2021/11/23 12:00:32;;;;;;;22.10;14.60;;;;;;;4.07;78.27;100729.06;126387;1310;107689;-79
2021/11/23 12:03:39;;;;;;;16.40;11.10;;;;;;;4.13;78.40;100727.95;126644;1316;108486;-81
2021/11/23 12:07:13;;;;;;;21.50;13.90;;;;;;;4.12;78.62;100735.08;126848;1310;107057;-79
2021/11/23 12:10:24;;;;;;;17.70;11.30;;;;;;;4.10;78.52;100734.48;127064;1313;108681;-78
2021/11/23 12:13:35;;;;;;;21.70;13.00;;;;;;;4.11;78.44;100736.34;127008;1310;108912;-79
2021/11/23 12:16:47;;;;;;;26.50;16.10;;;;;;;4.14;78.63;100740.23;126756;1310;107427;-81
2021/11/23 12:20:03;;;;;;;28.70;14.70;;;;;;;4.07;78.67;100733.66;126913;1310;108835;-79
2021/11/23 12:23:18;;;;;;;213.80;96.00;;;;;;;4.10;78.72;100736.44;126711;1313;108766;-79
2021/11/23 12:26:28;;;;;;;43.70;17.10;;;;;;;4.14;78.64;100738.11;126456;1310;108840;-81
2021/11/23 12:29:33;;;;;;;45.40;20.10;;;;;;;4.25;78.51;100737.91;126585;1314;109024;-79
2021/11/23 12:32:40;;;;;;;33.30;15.30;;;;;;;4.22;78.87;100744.61;126537;1310;107788;-81
2021/11/23 12:35:46;;;;;;;30.10;15.20;;;;;;;4.21;78.98;100754.23;126532;1310;108135;-80
2021/11/23 12:38:53;;;;;;;92.60;44.90;;;;;;;4.15;78.72;100756.73;126732;1309;108790;-81
2021/11/23 12:42:05;;;;;;;32.40;14.90;;;;;;;4.17;78.88;100760.12;126603;1313;108742;-80
2021/11/23 12:45:12;;;;;;;28.90;15.00;;;;;;;4.11;79.18;100766.46;126682;1310;108936;-78
2021/11/23 12:48:32;;;;;;;68.90;35.70;;;;;;;4.12;79.32;100770.79;126816;1310;108892;-79
2021/11/23 12:51:43;;;;;;;37.00;20.20;;;;;;;4.15;79.43;100779.11;126589;1310;109671;-79
2021/11/23 12:54:51;;;;;;;65.20;30.80;;;;;;;4.13;79.51;100776.94;126941;1310;108844;-80
2021/11/23 12:57:57;;;;;;;38.10;20.00;;;;;;;4.04;79.70;100776.77;126902;1310;107828;-79
2021/11/23 13:01:03;;;;;;;47.60;26.00;;;;;;;3.95;80.44;100783.52;126973;1310;108912;-81
2021/11/23 13:04:09;;;;;;;30.30;18.50;;;;;;;3.91;80.32;100787.45;127038;1314;108776;-80
2021/11/23 13:07:14;;;;;;;42.60;20.80;;;;;;;3.89;80.62;100787.02;127055;1310;108917;-79
2021/11/23 13:10:22;;;;;;;47.20;25.80;;;;;;;3.91;80.25;100789.20;127136;1314;109052;-78
2021/11/23 13:13:30;;;;;;;37.90;22.00;;;;;;;3.95;80.12;100788.45;126927;1310;109785;-79
2021/11/23 13:16:46;;;;;;;28.20;15.30;;;;;;;4.00;80.00;100788.28;126890;1313;108895;-81
2021/11/23 13:19:55;;;;;;;34.30;18.10;;;;;;;3.99;80.32;100788.21;126928;1310;108644;-78
2021/11/23 13:23:09;;;;;;;54.70;26.20;;;;;;;4.00;80.43;100795.16;126933;1310;108937;-77
2021/11/23 13:26:18;;;;;;;59.20;28.50;;;;;;;4.03;80.63;100798.71;126744;1310;109024;-78
2021/11/23 13:29:34;;;;;;;30.90;17.80;;;;;;;4.01;80.63;100801.64;126768;1310;108758;-77
2021/11/23 13:32:46;;;;;;;53.00;29.50;;;;;;;3.96;80.55;100803.33;126606;1310;107160;-80
2021/11/23 13:35:58;;;;;;;22.60;15.10;;;;;;;3.91;81.44;100801.51;126580;1310;109002;-79
2021/11/23 13:39:15;;;;;;;22.80;14.90;;;;;;;3.87;81.23;100801.43;126485;1310;109019;-80
2021/11/23 13:42:24;;;;;;;21.00;13.50;;;;;;;3.84;81.96;100807.13;126760;1313;108619;-80
2021/11/23 13:45:30;;;;;;;30.40;18.40;;;;;;;3.87;81.30;100808.63;126818;1310;108635;-80
2021/11/23 13:48:36;;;;;;;23.80;16.30;;;;;;;3.96;81.43;100815.66;127024;1310;108810;-81
2021/11/23 13:51:42;;;;;;;28.80;17.80;;;;;;;3.95;81.44;100817.52;127089;1310;108699;-83
2021/11/23 13:54:49;;;;;;;27.40;17.00;;;;;;;3.98;81.33;100820.27;126935;1313;108633;-82
2021/11/23 13:57:55;;;;;;;18.90;11.90;;;;;;;4.04;81.59;100816.19;127125;1315;108834;-83
2021/11/23 14:01:07;;;;;;;21.90;14.30;;;;;;;4.07;81.45;100820.77;126879;1313;193850;-82
2021/11/23 14:04:18;;;;;;;23.70;13.50;;;;;;;4.12;81.66;100822.20;127105;1313;108799;-82
2021/11/23 14:07:23;;;;;;;28.80;14.00;;;;;;;4.09;81.40;100820.81;127078;1310;108823;-85